sensor_id;sensor_type;location;lat;lon;timestamp;temperature;humidity
18974;DHT22;9621;48.690;9.466;2024-02-21T00:01:10;1.70;99.90
18974;DHT22;9621;48.690;9.466;2024-02-21T00:03:42;1.70;99.90
18974;DHT22;9621;48.690;9.466;2024-02-21T00:06:08;1.70;99.90
18974;DHT22;9621;48.690;9.466;2024-02-21T00:08:35;1.70;99.90
18974;DHT22;9621;48.690;9.466;2024-02-21T00:11:02;1.70;99.90
18974;DHT22;9621;48.690;9.466;2024-02-21T00:13:29;1.80;99.90
18974;DHT22;9621;48.690;9.466;2024-02-21T00:15:56;1.80;99.90
18974;DHT22;9621;48.690;9.466;2024-02-21T00:18:23;1.80;99.90
18974;DHT22;9621;48.690;9.466;2024-02-21T00:20:52;1.80;99.90
18974;DHT22;9621;48.690;9.466;2024-02-21T00:23:18;1.80;99.90
18974;DHT22;9621;48.690;9.466;2024-02-21T00:25:45;1.80;99.90
18974;DHT22;9621;48.690;9.466;2024-02-21T00:28:12;1.80;99.90
18974;DHT22;9621;48.690;9.466;2024-02-21T00:30:39;1.90;99.90
18974;DHT22;9621;48.690;9.466;2024-02-21T00:33:06;1.90;99.90
18974;DHT22;9621;48.690;9.466;2024-02-21T00:35:33;1.80;99.90
18974;DHT22;9621;48.690;9.466;2024-02-21T00:38:01;1.90;99.90
18974;DHT22;9621;48.690;9.466;2024-02-21T00:40:28;1.80;99.90
18974;DHT22;9621;48.690;9.466;2024-02-21T00:42:55;1.80;99.90
18974;DHT22;9621;48.690;9.466;2024-02-21T00:45:22;1.80;99.90
18974;DHT22;9621;48.690;9.466;2024-02-21T00:47:49;1.80;99.90
18974;DHT22;9621;48.690;9.466;2024-02-21T00:50:16;1.80;99.90
18974;DHT22;9621;48.690;9.466;2024-02-21T00:52:43;1.80;99.90
18974;DHT22;9621;48.690;9.466;2024-02-21T00:55:12;1.80;99.90
18974;DHT22;9621;48.690;9.466;2024-02-21T00:57:39;1.80;99.90
18974;DHT22;9621;48.690;9.466;2024-02-21T01:00:07;1.80;99.90
18974;DHT22;9621;48.690;9.466;2024-02-21T01:02:34;1.80;99.90
18974;DHT22;9621;48.690;9.466;2024-02-21T01:05:02;1.80;99.90
18974;DHT22;9621;48.690;9.466;2024-02-21T01:07:29;1.80;99.90
18974;DHT22;9621;48.690;9.466;2024-02-21T01:09:56;1.90;99.90
18974;DHT22;9621;48.690;9.466;2024-02-21T01:12:24;1.90;99.90
18974;DHT22;9621;48.690;9.466;2024-02-21T01:14:51;1.80;99.90
18974;DHT22;9621;48.690;9.466;2024-02-21T01:17:18;1.90;99.90
18974;DHT22;9621;48.690;9.466;2024-02-21T01:19:46;1.90;99.90
18974;DHT22;9621;48.690;9.466;2024-02-21T01:22:13;1.90;99.90
18974;DHT22;9621;48.690;9.466;2024-02-21T01:24:40;2.00;99.90
18974;DHT22;9621;48.690;9.466;2024-02-21T01:27:07;2.00;99.90
18974;DHT22;9621;48.690;9.466;2024-02-21T01:29:35;2.10;99.90
18974;DHT22;9621;48.690;9.466;2024-02-21T01:32:02;2.10;99.90
18974;DHT22;9621;48.690;9.466;2024-02-21T01:34:29;2.10;99.90
18974;DHT22;9621;48.690;9.466;2024-02-21T01:36:56;2.10;99.90
18974;DHT22;9621;48.690;9.466;2024-02-21T01:39:24;2.20;99.90
18974;DHT22;9621;48.690;9.466;2024-02-21T01:41:51;2.20;99.90
18974;DHT22;9621;48.690;9.466;2024-02-21T01:44:18;2.20;99.90
18974;DHT22;9621;48.690;9.466;2024-02-21T01:46:47;2.20;99.90
18974;DHT22;9621;48.690;9.466;2024-02-21T01:49:14;2.30;99.90
18974;DHT22;9621;48.690;9.466;2024-02-21T01:51:41;2.30;99.90
18974;DHT22;9621;48.690;9.466;2024-02-21T01:54:08;2.30;99.90
18974;DHT22;9621;48.690;9.466;2024-02-21T01:56:36;2.30;99.90
18974;DHT22;9621;48.690;9.466;2024-02-21T01:59:03;2.30;99.90
18974;DHT22;9621;48.690;9.466;2024-02-21T02:01:30;2.40;99.90
18974;DHT22;9621;48.690;9.466;2024-02-21T02:03:59;2.30;99.90
18974;DHT22;9621;48.690;9.466;2024-02-21T02:06:26;2.30;99.90
18974;DHT22;9621;48.690;9.466;2024-02-21T02:08:53;2.30;99.90
18974;DHT22;9621;48.690;9.466;2024-02-21T02:11:20;2.30;99.90
18974;DHT22;9621;48.690;9.466;2024-02-21T02:13:47;2.30;99.90
18974;DHT22;9621;48.690;9.466;2024-02-21T02:16:14;2.40;99.90
18974;DHT22;9621;48.690;9.466;2024-02-21T02:18:41;2.30;99.90
18974;DHT22;9621;48.690;9.466;2024-02-21T02:21:15;2.40;99.90
18974;DHT22;9621;48.690;9.466;2024-02-21T02:23:50;2.40;99.90
18974;DHT22;9621;48.690;9.466;2024-02-21T02:26:17;2.40;99.90
18974;DHT22;9621;48.690;9.466;2024-02-21T02:28:43;2.40;99.90
18974;DHT22;9621;48.690;9.466;2024-02-21T02:31:10;2.60;99.90
18974;DHT22;9621;48.690;9.466;2024-02-21T02:33:37;2.50;99.90
18974;DHT22;9621;48.690;9.466;2024-02-21T02:36:05;2.40;99.90
18974;DHT22;9621;48.690;9.466;2024-02-21T02:38:32;2.50;99.90
18974;DHT22;9621;48.690;9.466;2024-02-21T02:41:00;2.50;99.90
18974;DHT22;9621;48.690;9.466;2024-02-21T02:43:27;2.50;99.90
18974;DHT22;9621;48.690;9.466;2024-02-21T02:45:54;2.50;99.90
18974;DHT22;9621;48.690;9.466;2024-02-21T02:48:21;2.50;99.90
18974;DHT22;9621;48.690;9.466;2024-02-21T02:50:48;2.40;99.90
18974;DHT22;9621;48.690;9.466;2024-02-21T02:53:15;2.50;99.90
18974;DHT22;9621;48.690;9.466;2024-02-21T02:55:42;2.50;99.90
18974;DHT22;9621;48.690;9.466;2024-02-21T02:58:11;2.60;99.90
18974;DHT22;9621;48.690;9.466;2024-02-21T03:00:38;2.60;99.90
18974;DHT22;9621;48.690;9.466;2024-02-21T03:03:05;2.60;99.90
18974;DHT22;9621;48.690;9.466;2024-02-21T03:05:33;2.60;99.90
18974;DHT22;9621;48.690;9.466;2024-02-21T03:08:00;2.60;99.90
18974;DHT22;9621;48.690;9.466;2024-02-21T03:10:27;2.60;99.90
18974;DHT22;9621;48.690;9.466;2024-02-21T03:12:54;2.60;99.90
18974;DHT22;9621;48.690;9.466;2024-02-21T03:15:22;2.60;99.90
18974;DHT22;9621;48.690;9.466;2024-02-21T03:17:49;2.60;99.90
18974;DHT22;9621;48.690;9.466;2024-02-21T03:20:16;2.60;99.90
18974;DHT22;9621;48.690;9.466;2024-02-21T03:22:45;2.80;99.90
18974;DHT22;9621;48.690;9.466;2024-02-21T03:25:12;2.60;99.90
18974;DHT22;9621;48.690;9.466;2024-02-21T03:27:40;2.60;99.90
18974;DHT22;9621;48.690;9.466;2024-02-21T03:30:08;2.60;99.90
18974;DHT22;9621;48.690;9.466;2024-02-21T03:32:36;2.60;99.90
18974;DHT22;9621;48.690;9.466;2024-02-21T03:35:05;2.60;99.90
18974;DHT22;9621;48.690;9.466;2024-02-21T03:37:31;2.70;99.90
18974;DHT22;9621;48.690;9.466;2024-02-21T03:39:58;2.60;99.90
18974;DHT22;9621;48.690;9.466;2024-02-21T03:42:25;2.70;99.90
18974;DHT22;9621;48.690;9.466;2024-02-21T03:44:55;2.70;99.90
18974;DHT22;9621;48.690;9.466;2024-02-21T03:47:22;2.60;99.90
18974;DHT22;9621;48.690;9.466;2024-02-21T03:49:50;2.70;99.90
18974;DHT22;9621;48.690;9.466;2024-02-21T03:52:17;2.70;99.90
18974;DHT22;9621;48.690;9.466;2024-02-21T03:54:44;2.70;99.90
18974;DHT22;9621;48.690;9.466;2024-02-21T03:57:11;2.70;99.90
18974;DHT22;9621;48.690;9.466;2024-02-21T03:59:38;2.60;99.90
18974;DHT22;9621;48.690;9.466;2024-02-21T04:02:05;2.60;99.90
18974;DHT22;9621;48.690;9.466;2024-02-21T04:04:34;2.50;99.90
18974;DHT22;9621;48.690;9.466;2024-02-21T04:07:04;2.40;99.90
18974;DHT22;9621;48.690;9.466;2024-02-21T04:09:33;2.40;99.90
18974;DHT22;9621;48.690;9.466;2024-02-21T04:12:00;2.40;99.90
18974;DHT22;9621;48.690;9.466;2024-02-21T04:14:27;2.30;99.90
18974;DHT22;9621;48.690;9.466;2024-02-21T04:16:54;2.30;99.90
18974;DHT22;9621;48.690;9.466;2024-02-21T04:19:21;2.30;99.90
18974;DHT22;9621;48.690;9.466;2024-02-21T04:21:48;2.30;99.90
18974;DHT22;9621;48.690;9.466;2024-02-21T04:24:17;2.10;99.90
18974;DHT22;9621;48.690;9.466;2024-02-21T04:26:44;2.30;99.90
18974;DHT22;9621;48.690;9.466;2024-02-21T04:29:11;2.20;99.90
18974;DHT22;9621;48.690;9.466;2024-02-21T04:31:37;2.20;99.90
18974;DHT22;9621;48.690;9.466;2024-02-21T04:34:06;2.20;99.90
18974;DHT22;9621;48.690;9.466;2024-02-21T04:36:33;2.30;99.90
18974;DHT22;9621;48.690;9.466;2024-02-21T04:39:00;2.20;99.90
18974;DHT22;9621;48.690;9.466;2024-02-21T04:41:27;2.20;99.90
18974;DHT22;9621;48.690;9.466;2024-02-21T04:43:54;2.10;99.90
18974;DHT22;9621;48.690;9.466;2024-02-21T04:46:21;2.10;99.90
18974;DHT22;9621;48.690;9.466;2024-02-21T04:48:48;2.10;99.90
18974;DHT22;9621;48.690;9.466;2024-02-21T04:51:15;2.10;99.90
18974;DHT22;9621;48.690;9.466;2024-02-21T04:53:42;2.00;99.90
18974;DHT22;9621;48.690;9.466;2024-02-21T04:56:08;2.00;99.90
18974;DHT22;9621;48.690;9.466;2024-02-21T04:58:39;1.90;99.90
18974;DHT22;9621;48.690;9.466;2024-02-21T05:01:06;1.90;99.90
18974;DHT22;9621;48.690;9.466;2024-02-21T05:03:33;1.80;99.90
18974;DHT22;9621;48.690;9.466;2024-02-21T05:06:00;1.80;99.90
18974;DHT22;9621;48.690;9.466;2024-02-21T05:08:27;1.70;99.90
18974;DHT22;9621;48.690;9.466;2024-02-21T05:10:54;1.60;99.90
18974;DHT22;9621;48.690;9.466;2024-02-21T05:13:21;1.60;99.90
18974;DHT22;9621;48.690;9.466;2024-02-21T05:15:49;1.50;99.90
18974;DHT22;9621;48.690;9.466;2024-02-21T05:18:16;1.40;99.90
18974;DHT22;9621;48.690;9.466;2024-02-21T05:20:43;1.40;99.90
18974;DHT22;9621;48.690;9.466;2024-02-21T05:23:10;1.30;99.90
18974;DHT22;9621;48.690;9.466;2024-02-21T05:25:37;1.30;99.90
18974;DHT22;9621;48.690;9.466;2024-02-21T05:28:04;1.10;99.90
18974;DHT22;9621;48.690;9.466;2024-02-21T05:30:31;1.10;99.90
18974;DHT22;9621;48.690;9.466;2024-02-21T05:33:04;1.00;99.90
18974;DHT22;9621;48.690;9.466;2024-02-21T05:35:31;1.00;99.90
18974;DHT22;9621;48.690;9.466;2024-02-21T05:37:58;1.00;99.90
18974;DHT22;9621;48.690;9.466;2024-02-21T05:40:26;0.90;99.90
18974;DHT22;9621;48.690;9.466;2024-02-21T05:42:53;0.80;99.90
18974;DHT22;9621;48.690;9.466;2024-02-21T05:45:20;0.70;99.90
18974;DHT22;9621;48.690;9.466;2024-02-21T05:47:47;0.70;99.90
18974;DHT22;9621;48.690;9.466;2024-02-21T05:50:15;0.60;99.90
18974;DHT22;9621;48.690;9.466;2024-02-21T05:52:42;0.60;99.90
18974;DHT22;9621;48.690;9.466;2024-02-21T05:55:09;0.50;99.90
18974;DHT22;9621;48.690;9.466;2024-02-21T05:57:36;0.50;99.90
18974;DHT22;9621;48.690;9.466;2024-02-21T06:00:05;0.40;99.90
18974;DHT22;9621;48.690;9.466;2024-02-21T06:02:32;0.30;99.90
18974;DHT22;9621;48.690;9.466;2024-02-21T06:04:58;0.30;99.90
18974;DHT22;9621;48.690;9.466;2024-02-21T06:07:27;0.20;99.90
18974;DHT22;9621;48.690;9.466;2024-02-21T06:09:54;0.20;99.90
18974;DHT22;9621;48.690;9.466;2024-02-21T06:12:20;0.20;99.90
18974;DHT22;9621;48.690;9.466;2024-02-21T06:14:47;0.20;99.90
18974;DHT22;9621;48.690;9.466;2024-02-21T06:17:14;0.30;99.90
18974;DHT22;9621;48.690;9.466;2024-02-21T06:19:43;0.20;99.90
18974;DHT22;9621;48.690;9.466;2024-02-21T06:22:10;0.20;99.90
18974;DHT22;9621;48.690;9.466;2024-02-21T06:24:38;0.20;99.90
18974;DHT22;9621;48.690;9.466;2024-02-21T06:27:06;0.20;99.90
18974;DHT22;9621;48.690;9.466;2024-02-21T06:29:33;0.20;99.90
18974;DHT22;9621;48.690;9.466;2024-02-21T06:32:01;0.20;99.90
18974;DHT22;9621;48.690;9.466;2024-02-21T06:34:28;0.20;99.90
18974;DHT22;9621;48.690;9.466;2024-02-21T06:36:55;0.20;99.90
18974;DHT22;9621;48.690;9.466;2024-02-21T06:39:22;0.20;99.90
18974;DHT22;9621;48.690;9.466;2024-02-21T06:41:52;0.20;99.90
18974;DHT22;9621;48.690;9.466;2024-02-21T06:44:21;0.20;99.90
18974;DHT22;9621;48.690;9.466;2024-02-21T06:46:48;0.30;99.90
18974;DHT22;9621;48.690;9.466;2024-02-21T06:49:15;0.50;99.90
18974;DHT22;9621;48.690;9.466;2024-02-21T06:51:42;0.70;99.90
18974;DHT22;9621;48.690;9.466;2024-02-21T06:54:09;1.00;99.90
18974;DHT22;9621;48.690;9.466;2024-02-21T06:56:37;1.30;99.90
18974;DHT22;9621;48.690;9.466;2024-02-21T06:59:05;1.50;99.90
18974;DHT22;9621;48.690;9.466;2024-02-21T07:01:32;1.80;99.90
18974;DHT22;9621;48.690;9.466;2024-02-21T07:03:59;1.80;99.90
18974;DHT22;9621;48.690;9.466;2024-02-21T07:06:26;1.90;99.90
18974;DHT22;9621;48.690;9.466;2024-02-21T07:08:53;2.00;99.90
18974;DHT22;9621;48.690;9.466;2024-02-21T07:11:20;2.10;99.90
18974;DHT22;9621;48.690;9.466;2024-02-21T07:13:47;2.20;99.90
18974;DHT22;9621;48.690;9.466;2024-02-21T07:16:15;2.40;99.90
18974;DHT22;9621;48.690;9.466;2024-02-21T07:18:42;2.70;99.90
18974;DHT22;9621;48.690;9.466;2024-02-21T07:21:10;3.00;99.90
18974;DHT22;9621;48.690;9.466;2024-02-21T07:23:40;3.20;99.90
18974;DHT22;9621;48.690;9.466;2024-02-21T07:26:07;3.50;99.90
18974;DHT22;9621;48.690;9.466;2024-02-21T07:28:34;3.70;99.90
18974;DHT22;9621;48.690;9.466;2024-02-21T07:31:01;4.00;99.90
18974;DHT22;9621;48.690;9.466;2024-02-21T07:33:29;4.20;99.90
18974;DHT22;9621;48.690;9.466;2024-02-21T07:35:56;4.50;99.90
18974;DHT22;9621;48.690;9.466;2024-02-21T07:38:23;4.70;99.90
18974;DHT22;9621;48.690;9.466;2024-02-21T07:40:50;4.90;99.90
18974;DHT22;9621;48.690;9.466;2024-02-21T07:43:17;5.20;99.90
18974;DHT22;9621;48.690;9.466;2024-02-21T07:45:47;5.50;99.90
18974;DHT22;9621;48.690;9.466;2024-02-21T07:48:14;6.00;99.90
18974;DHT22;9621;48.690;9.466;2024-02-21T07:50:43;6.30;99.90
18974;DHT22;9621;48.690;9.466;2024-02-21T07:53:09;6.70;99.90
18974;DHT22;9621;48.690;9.466;2024-02-21T07:55:36;7.00;99.90
18974;DHT22;9621;48.690;9.466;2024-02-21T07:58:03;7.30;99.90
18974;DHT22;9621;48.690;9.466;2024-02-21T08:00:30;7.50;99.90
18974;DHT22;9621;48.690;9.466;2024-02-21T08:02:57;7.60;99.90
18974;DHT22;9621;48.690;9.466;2024-02-21T08:05:24;7.70;99.90
18974;DHT22;9621;48.690;9.466;2024-02-21T08:07:52;7.70;99.90
18974;DHT22;9621;48.690;9.466;2024-02-21T08:10:19;7.70;99.90
18974;DHT22;9621;48.690;9.466;2024-02-21T08:12:46;7.90;99.90
18974;DHT22;9621;48.690;9.466;2024-02-21T08:15:13;8.10;99.90
18974;DHT22;9621;48.690;9.466;2024-02-21T08:17:43;8.30;99.90
18974;DHT22;9621;48.690;9.466;2024-02-21T08:20:12;8.60;99.90
18974;DHT22;9621;48.690;9.466;2024-02-21T08:22:39;8.80;99.90
18974;DHT22;9621;48.690;9.466;2024-02-21T08:25:07;9.00;99.90
18974;DHT22;9621;48.690;9.466;2024-02-21T08:27:34;9.10;99.90
18974;DHT22;9621;48.690;9.466;2024-02-21T08:30:01;9.30;99.90
18974;DHT22;9621;48.690;9.466;2024-02-21T08:32:29;9.50;99.90
18974;DHT22;9621;48.690;9.466;2024-02-21T08:34:56;9.80;99.90
18974;DHT22;9621;48.690;9.466;2024-02-21T08:37:23;10.10;99.90
18974;DHT22;9621;48.690;9.466;2024-02-21T08:39:50;10.40;99.90
18974;DHT22;9621;48.690;9.466;2024-02-21T08:42:18;10.70;99.90
18974;DHT22;9621;48.690;9.466;2024-02-21T08:44:45;11.00;99.90
18974;DHT22;9621;48.690;9.466;2024-02-21T08:47:12;11.20;99.90
18974;DHT22;9621;48.690;9.466;2024-02-21T08:49:39;11.30;99.90
18974;DHT22;9621;48.690;9.466;2024-02-21T08:52:06;11.40;99.90
18974;DHT22;9621;48.690;9.466;2024-02-21T08:54:33;11.30;99.90
18974;DHT22;9621;48.690;9.466;2024-02-21T08:57:00;11.20;99.90
18974;DHT22;9621;48.690;9.466;2024-02-21T08:59:28;11.00;99.90
18974;DHT22;9621;48.690;9.466;2024-02-21T09:01:55;10.80;99.90
18974;DHT22;9621;48.690;9.466;2024-02-21T09:04:22;10.80;99.90
18974;DHT22;9621;48.690;9.466;2024-02-21T09:06:49;10.60;99.90
18974;DHT22;9621;48.690;9.466;2024-02-21T09:09:17;10.50;99.90
18974;DHT22;9621;48.690;9.466;2024-02-21T09:11:45;10.40;99.90
18974;DHT22;9621;48.690;9.466;2024-02-21T09:14:12;10.30;99.90
18974;DHT22;9621;48.690;9.466;2024-02-21T09:16:40;10.20;99.90
18974;DHT22;9621;48.690;9.466;2024-02-21T09:19:07;10.10;99.90
18974;DHT22;9621;48.690;9.466;2024-02-21T09:21:36;10.00;99.90
18974;DHT22;9621;48.690;9.466;2024-02-21T09:24:04;9.90;99.90
18974;DHT22;9621;48.690;9.466;2024-02-21T09:26:32;9.90;99.90
18974;DHT22;9621;48.690;9.466;2024-02-21T09:28:59;9.90;99.90
18974;DHT22;9621;48.690;9.466;2024-02-21T09:31:25;10.00;99.90
18974;DHT22;9621;48.690;9.466;2024-02-21T09:33:54;9.90;99.90
18974;DHT22;9621;48.690;9.466;2024-02-21T09:36:21;9.90;99.90
18974;DHT22;9621;48.690;9.466;2024-02-21T09:38:48;9.90;99.90
18974;DHT22;9621;48.690;9.466;2024-02-21T09:41:16;10.00;99.90
18974;DHT22;9621;48.690;9.466;2024-02-21T09:43:44;10.00;99.90
18974;DHT22;9621;48.690;9.466;2024-02-21T09:46:15;10.10;99.90
18974;DHT22;9621;48.690;9.466;2024-02-21T09:48:53;10.10;99.90
18974;DHT22;9621;48.690;9.466;2024-02-21T09:51:25;10.20;99.90
18974;DHT22;9621;48.690;9.466;2024-02-21T09:53:53;10.30;99.90
18974;DHT22;9621;48.690;9.466;2024-02-21T09:56:20;10.30;99.90
18974;DHT22;9621;48.690;9.466;2024-02-21T09:58:47;10.30;99.90
18974;DHT22;9621;48.690;9.466;2024-02-21T10:01:14;10.30;99.90
18974;DHT22;9621;48.690;9.466;2024-02-21T10:03:42;10.40;99.90
18974;DHT22;9621;48.690;9.466;2024-02-21T10:06:09;10.40;99.90
18974;DHT22;9621;48.690;9.466;2024-02-21T10:08:38;10.60;99.90
18974;DHT22;9621;48.690;9.466;2024-02-21T10:11:04;10.80;99.90
18974;DHT22;9621;48.690;9.466;2024-02-21T10:13:35;10.90;99.90
18974;DHT22;9621;48.690;9.466;2024-02-21T10:16:05;11.20;99.90
18974;DHT22;9621;48.690;9.466;2024-02-21T10:18:32;11.50;99.90
18974;DHT22;9621;48.690;9.466;2024-02-21T10:21:03;11.80;99.90
18974;DHT22;9621;48.690;9.466;2024-02-21T10:23:43;12.10;99.90
18974;DHT22;9621;48.690;9.466;2024-02-21T10:26:10;12.50;99.90
18974;DHT22;9621;48.690;9.466;2024-02-21T10:28:37;12.80;99.90
18974;DHT22;9621;48.690;9.466;2024-02-21T10:31:08;13.00;99.90
18974;DHT22;9621;48.690;9.466;2024-02-21T10:33:34;13.20;99.90
18974;DHT22;9621;48.690;9.466;2024-02-21T10:36:08;13.30;99.90
18974;DHT22;9621;48.690;9.466;2024-02-21T10:38:37;13.30;99.90
18974;DHT22;9621;48.690;9.466;2024-02-21T10:41:06;13.40;99.90
18974;DHT22;9621;48.690;9.466;2024-02-21T10:43:38;13.60;99.90
18974;DHT22;9621;48.690;9.466;2024-02-21T10:46:07;13.80;99.90
18974;DHT22;9621;48.690;9.466;2024-02-21T10:48:42;14.00;99.90
18974;DHT22;9621;48.690;9.466;2024-02-21T10:51:15;14.10;99.90
18974;DHT22;9621;48.690;9.466;2024-02-21T10:53:45;14.20;99.90
18974;DHT22;9621;48.690;9.466;2024-02-21T10:56:28;14.30;99.90
18974;DHT22;9621;48.690;9.466;2024-02-21T10:58:58;14.30;99.90
18974;DHT22;9621;48.690;9.466;2024-02-21T11:01:25;14.30;99.90
18974;DHT22;9621;48.690;9.466;2024-02-21T11:03:59;14.20;99.90
18974;DHT22;9621;48.690;9.466;2024-02-21T11:06:28;14.10;99.90
18974;DHT22;9621;48.690;9.466;2024-02-21T11:09:02;14.00;99.90
18974;DHT22;9621;48.690;9.466;2024-02-21T11:11:33;14.00;99.90
18974;DHT22;9621;48.690;9.466;2024-02-21T11:14:07;14.10;99.90
18974;DHT22;9621;48.690;9.466;2024-02-21T11:16:38;14.20;99.90
18974;DHT22;9621;48.690;9.466;2024-02-21T11:19:06;14.30;99.90
18974;DHT22;9621;48.690;9.466;2024-02-21T11:21:34;14.30;99.90
18974;DHT22;9621;48.690;9.466;2024-02-21T11:24:01;14.30;99.90
18974;DHT22;9621;48.690;9.466;2024-02-21T11:26:31;14.30;99.90
18974;DHT22;9621;48.690;9.466;2024-02-21T11:28:58;14.30;99.90
18974;DHT22;9621;48.690;9.466;2024-02-21T11:31:26;14.30;99.90
18974;DHT22;9621;48.690;9.466;2024-02-21T11:33:54;14.50;99.90
18974;DHT22;9621;48.690;9.466;2024-02-21T11:36:25;14.50;99.90
18974;DHT22;9621;48.690;9.466;2024-02-21T11:38:52;14.60;99.90
18974;DHT22;9621;48.690;9.466;2024-02-21T11:41:20;14.60;99.90
18974;DHT22;9621;48.690;9.466;2024-02-21T11:43:48;14.70;99.90
18974;DHT22;9621;48.690;9.466;2024-02-21T11:46:16;14.60;99.90
18974;DHT22;9621;48.690;9.466;2024-02-21T11:48:44;14.70;99.90
18974;DHT22;9621;48.690;9.466;2024-02-21T11:51:21;14.70;99.90
18974;DHT22;9621;48.690;9.466;2024-02-21T11:53:50;14.70;99.90
18974;DHT22;9621;48.690;9.466;2024-02-21T11:56:18;14.70;99.90
18974;DHT22;9621;48.690;9.466;2024-02-21T11:58:45;14.80;99.90
18974;DHT22;9621;48.690;9.466;2024-02-21T12:01:14;14.90;99.90
18974;DHT22;9621;48.690;9.466;2024-02-21T12:03:42;14.90;99.90
18974;DHT22;9621;48.690;9.466;2024-02-21T12:06:16;14.90;99.90
18974;DHT22;9621;48.690;9.466;2024-02-21T12:08:46;15.00;99.90
18974;DHT22;9621;48.690;9.466;2024-02-21T12:11:22;15.00;99.90
18974;DHT22;9621;48.690;9.466;2024-02-21T12:13:59;15.00;99.90
18974;DHT22;9621;48.690;9.466;2024-02-21T12:16:29;15.00;99.90
18974;DHT22;9621;48.690;9.466;2024-02-21T12:18:56;15.00;99.90
18974;DHT22;9621;48.690;9.466;2024-02-21T12:21:24;15.00;99.90
18974;DHT22;9621;48.690;9.466;2024-02-21T12:23:54;15.00;99.90
18974;DHT22;9621;48.690;9.466;2024-02-21T12:26:21;15.00;99.90
18974;DHT22;9621;48.690;9.466;2024-02-21T12:28:48;15.00;99.90
18974;DHT22;9621;48.690;9.466;2024-02-21T12:31:14;14.90;99.90
18974;DHT22;9621;48.690;9.466;2024-02-21T12:33:44;14.90;99.90
18974;DHT22;9621;48.690;9.466;2024-02-21T12:36:11;14.80;99.90
18974;DHT22;9621;48.690;9.466;2024-02-21T12:38:38;14.80;99.90
18974;DHT22;9621;48.690;9.466;2024-02-21T12:41:05;14.70;99.90
18974;DHT22;9621;48.690;9.466;2024-02-21T12:43:33;14.60;99.90
18974;DHT22;9621;48.690;9.466;2024-02-21T12:46:00;14.60;99.90
18974;DHT22;9621;48.690;9.466;2024-02-21T12:48:27;14.50;99.90
18974;DHT22;9621;48.690;9.466;2024-02-21T12:50:56;14.40;99.90
18974;DHT22;9621;48.690;9.466;2024-02-21T12:53:23;14.30;99.90
18974;DHT22;9621;48.690;9.466;2024-02-21T12:55:50;14.30;99.90
18974;DHT22;9621;48.690;9.466;2024-02-21T12:58:16;14.20;99.90
18974;DHT22;9621;48.690;9.466;2024-02-21T13:00:43;14.20;99.90
18974;DHT22;9621;48.690;9.466;2024-02-21T13:03:11;14.10;99.90
18974;DHT22;9621;48.690;9.466;2024-02-21T13:05:39;14.20;99.90
18974;DHT22;9621;48.690;9.466;2024-02-21T13:08:09;14.10;99.90
18974;DHT22;9621;48.690;9.466;2024-02-21T13:10:37;14.20;99.90
18974;DHT22;9621;48.690;9.466;2024-02-21T13:13:04;14.10;99.90
18974;DHT22;9621;48.690;9.466;2024-02-21T13:15:31;14.20;99.90
18974;DHT22;9621;48.690;9.466;2024-02-21T13:17:58;14.20;99.90
18974;DHT22;9621;48.690;9.466;2024-02-21T13:20:25;14.20;99.90
18974;DHT22;9621;48.690;9.466;2024-02-21T13:22:52;14.10;99.90
18974;DHT22;9621;48.690;9.466;2024-02-21T13:25:20;14.10;99.90
18974;DHT22;9621;48.690;9.466;2024-02-21T13:27:47;14.10;99.90
18974;DHT22;9621;48.690;9.466;2024-02-21T13:30:14;14.00;99.90
18974;DHT22;9621;48.690;9.466;2024-02-21T13:32:44;14.00;99.90
18974;DHT22;9621;48.690;9.466;2024-02-21T13:35:13;13.90;99.90
18974;DHT22;9621;48.690;9.466;2024-02-21T13:37:40;13.80;99.90
18974;DHT22;9621;48.690;9.466;2024-02-21T13:40:08;13.80;99.90
18974;DHT22;9621;48.690;9.466;2024-02-21T13:42:37;13.70;99.90
18974;DHT22;9621;48.690;9.466;2024-02-21T13:45:05;13.70;99.90
18974;DHT22;9621;48.690;9.466;2024-02-21T13:47:32;13.70;99.90
18974;DHT22;9621;48.690;9.466;2024-02-21T13:49:59;13.80;99.90
18974;DHT22;9621;48.690;9.466;2024-02-21T13:52:26;13.80;99.90
18974;DHT22;9621;48.690;9.466;2024-02-21T13:54:53;13.80;99.90
18974;DHT22;9621;48.690;9.466;2024-02-21T13:57:20;13.90;99.90
18974;DHT22;9621;48.690;9.466;2024-02-21T13:59:48;13.80;99.90
18974;DHT22;9621;48.690;9.466;2024-02-21T14:02:16;13.80;99.90
18974;DHT22;9621;48.690;9.466;2024-02-21T14:04:43;13.80;99.90
18974;DHT22;9621;48.690;9.466;2024-02-21T14:07:10;13.70;99.90
18974;DHT22;9621;48.690;9.466;2024-02-21T14:09:37;13.80;99.90
18974;DHT22;9621;48.690;9.466;2024-02-21T14:12:04;13.70;99.90
18974;DHT22;9621;48.690;9.466;2024-02-21T14:14:34;13.70;99.90
18974;DHT22;9621;48.690;9.466;2024-02-21T14:17:02;13.70;99.90
18974;DHT22;9621;48.690;9.466;2024-02-21T14:19:29;13.70;99.90
18974;DHT22;9621;48.690;9.466;2024-02-21T14:21:56;13.70;99.90
18974;DHT22;9621;48.690;9.466;2024-02-21T14:24:24;13.70;99.90
18974;DHT22;9621;48.690;9.466;2024-02-21T14:26:50;13.70;99.90
18974;DHT22;9621;48.690;9.466;2024-02-21T14:29:16;13.70;99.90
18974;DHT22;9621;48.690;9.466;2024-02-21T14:31:43;13.70;99.90
18974;DHT22;9621;48.690;9.466;2024-02-21T14:34:12;13.70;99.90
18974;DHT22;9621;48.690;9.466;2024-02-21T14:36:39;13.60;99.90
18974;DHT22;9621;48.690;9.466;2024-02-21T14:39:07;13.50;99.90
18974;DHT22;9621;48.690;9.466;2024-02-21T14:41:34;13.40;99.90
18974;DHT22;9621;48.690;9.466;2024-02-21T14:44:02;13.30;99.90
18974;DHT22;9621;48.690;9.466;2024-02-21T14:46:29;13.30;99.90
18974;DHT22;9621;48.690;9.466;2024-02-21T14:48:56;13.20;99.90
18974;DHT22;9621;48.690;9.466;2024-02-21T14:51:24;13.20;99.90
18974;DHT22;9621;48.690;9.466;2024-02-21T14:53:51;13.20;99.90
18974;DHT22;9621;48.690;9.466;2024-02-21T14:56:20;13.20;99.90
18974;DHT22;9621;48.690;9.466;2024-02-21T14:58:48;13.20;99.90
18974;DHT22;9621;48.690;9.466;2024-02-21T15:01:18;13.20;99.90
18974;DHT22;9621;48.690;9.466;2024-02-21T15:03:45;13.10;99.90
18974;DHT22;9621;48.690;9.466;2024-02-21T15:06:12;13.10;99.90
18974;DHT22;9621;48.690;9.466;2024-02-21T15:08:40;13.10;99.90
18974;DHT22;9621;48.690;9.466;2024-02-21T15:11:07;13.10;99.90
18974;DHT22;9621;48.690;9.466;2024-02-21T15:13:34;13.00;99.90
18974;DHT22;9621;48.690;9.466;2024-02-21T15:16:02;13.00;99.90
18974;DHT22;9621;48.690;9.466;2024-02-21T15:18:30;12.90;99.90
18974;DHT22;9621;48.690;9.466;2024-02-21T15:20:58;12.80;99.90
18974;DHT22;9621;48.690;9.466;2024-02-21T15:23:25;12.80;99.90
18974;DHT22;9621;48.690;9.466;2024-02-21T15:25:54;12.60;99.90
18974;DHT22;9621;48.690;9.466;2024-02-21T15:28:21;12.60;99.90
18974;DHT22;9621;48.690;9.466;2024-02-21T15:30:49;12.40;99.90
18974;DHT22;9621;48.690;9.466;2024-02-21T15:33:16;12.40;99.90
18974;DHT22;9621;48.690;9.466;2024-02-21T15:35:43;12.20;99.90
18974;DHT22;9621;48.690;9.466;2024-02-21T15:38:09;12.10;99.90
18974;DHT22;9621;48.690;9.466;2024-02-21T15:40:36;12.00;99.90
18974;DHT22;9621;48.690;9.466;2024-02-21T15:43:05;11.90;99.90
18974;DHT22;9621;48.690;9.466;2024-02-21T15:45:33;11.80;99.90
18974;DHT22;9621;48.690;9.466;2024-02-21T15:48:00;11.70;99.90
18974;DHT22;9621;48.690;9.466;2024-02-21T15:50:28;11.60;99.90
18974;DHT22;9621;48.690;9.466;2024-02-21T15:52:55;11.50;99.90
18974;DHT22;9621;48.690;9.466;2024-02-21T15:55:22;11.40;99.90
18974;DHT22;9621;48.690;9.466;2024-02-21T15:57:49;11.30;99.90